sensor_id;sensor_type;location;lat;lon;timestamp;pressure;altitude;pressure_sealevel;temperature;humidity
79540;BME280;74475;52.122;5.406;2024-01-30T00:00:07;102718.09;;;20.78;54.48
79540;BME280;74475;52.122;5.406;2024-01-30T00:02:34;102716.06;;;20.82;54.47
79540;BME280;74475;52.122;5.406;2024-01-30T00:05:00;102711.28;;;20.85;54.01
79540;BME280;74475;52.122;5.406;2024-01-30T00:07:27;102716.63;;;20.87;53.99
79540;BME280;74475;52.122;5.406;2024-01-30T00:09:54;102709.31;;;20.88;54.45
79540;BME280;74475;52.122;5.406;2024-01-30T00:12:21;102712.03;;;20.88;54.32
79540;BME280;74475;52.122;5.406;2024-01-30T00:14:47;102715.66;;;20.88;53.94
79540;BME280;74475;52.122;5.406;2024-01-30T00:17:19;102713.81;;;20.89;53.95
79540;BME280;74475;52.122;5.406;2024-01-30T00:19:47;102714.69;;;20.89;54.49
79540;BME280;74475;52.122;5.406;2024-01-30T00:22:13;102714.78;;;20.88;53.68
79540;BME280;74475;52.122;5.406;2024-01-30T00:24:40;102709.41;;;20.86;53.74
79540;BME280;74475;52.122;5.406;2024-01-30T00:27:08;102714.97;;;20.84;53.61
79540;BME280;74475;52.122;5.406;2024-01-30T00:29:34;102710.59;;;20.82;53.52
79540;BME280;74475;52.122;5.406;2024-01-30T00:32:01;102708.94;;;20.79;53.53
79540;BME280;74475;52.122;5.406;2024-01-30T00:34:27;102715.38;;;20.78;53.46
79540;BME280;74475;52.122;5.406;2024-01-30T00:36:54;102702.84;;;20.74;53.50
79540;BME280;74475;52.122;5.406;2024-01-30T00:39:21;102702.09;;;20.72;53.69
79540;BME280;74475;52.122;5.406;2024-01-30T00:41:47;102704.03;;;20.70;53.84
79540;BME280;74475;52.122;5.406;2024-01-30T00:44:14;102699.53;;;20.69;53.66
79540;BME280;74475;52.122;5.406;2024-01-30T00:46:40;102706.06;;;20.67;53.46
79540;BME280;74475;52.122;5.406;2024-01-30T00:49:07;102700.69;;;20.65;53.78
79540;BME280;74475;52.122;5.406;2024-01-30T00:51:33;102702.66;;;20.63;53.82
79540;BME280;74475;52.122;5.406;2024-01-30T00:54:00;102702.72;;;20.62;53.82
79540;BME280;74475;52.122;5.406;2024-01-30T00:56:26;102706.47;;;20.61;53.60
79540;BME280;74475;52.122;5.406;2024-01-30T00:58:53;102699.31;;;20.58;53.87
79540;BME280;74475;52.122;5.406;2024-01-30T01:01:19;102697.66;;;20.56;53.73
79540;BME280;74475;52.122;5.406;2024-01-30T01:03:46;102703.22;;;20.54;53.68
79540;BME280;74475;52.122;5.406;2024-01-30T01:06:13;102699.69;;;20.52;53.52
79540;BME280;74475;52.122;5.406;2024-01-30T01:08:39;102704.38;;;20.50;53.90
79540;BME280;74475;52.122;5.406;2024-01-30T01:11:06;102699.88;;;20.49;53.43
79540;BME280;74475;52.122;5.406;2024-01-30T01:13:32;102698.25;;;20.47;53.77
79540;BME280;74475;52.122;5.406;2024-01-30T01:15:59;102698.31;;;20.45;53.77
79540;BME280;74475;52.122;5.406;2024-01-30T01:18:25;102699.41;;;20.43;53.57
79540;BME280;74475;52.122;5.406;2024-01-30T01:20:52;102693.03;;;20.42;53.58
79540;BME280;74475;52.122;5.406;2024-01-30T01:23:18;102687.78;;;20.39;53.79
79540;BME280;74475;52.122;5.406;2024-01-30T01:25:45;102679.66;;;20.38;53.77
79540;BME280;74475;52.122;5.406;2024-01-30T01:28:11;102674.31;;;20.36;53.63
79540;BME280;74475;52.122;5.406;2024-01-30T01:30:38;102663.47;;;20.34;53.50
79540;BME280;74475;52.122;5.406;2024-01-30T01:33:05;102668.16;;;20.32;53.58
79540;BME280;74475;52.122;5.406;2024-01-30T01:35:33;102671.84;;;20.31;53.55
79540;BME280;74475;52.122;5.406;2024-01-30T01:38:00;102665.69;;;20.28;53.27
79540;BME280;74475;52.122;5.406;2024-01-30T01:40:27;102673.00;;;20.27;53.31
79540;BME280;74475;52.122;5.406;2024-01-30T01:42:55;102662.16;;;20.26;53.55
79540;BME280;74475;52.122;5.406;2024-01-30T01:45:22;102668.66;;;20.23;53.65
79540;BME280;74475;52.122;5.406;2024-01-30T01:47:52;102676.84;;;20.23;53.50
79540;BME280;74475;52.122;5.406;2024-01-30T01:50:20;102677.06;;;20.20;53.33
79540;BME280;74475;52.122;5.406;2024-01-30T01:52:47;102663.59;;;20.17;53.62
79540;BME280;74475;52.122;5.406;2024-01-30T01:55:15;102671.00;;;20.15;53.50
79540;BME280;74475;52.122;5.406;2024-01-30T01:57:42;102669.25;;;20.14;53.64
79540;BME280;74475;52.122;5.406;2024-01-30T02:00:09;102666.59;;;20.13;53.52
79540;BME280;74475;52.122;5.406;2024-01-30T02:02:37;102673.03;;;20.12;53.55
79540;BME280;74475;52.122;5.406;2024-01-30T02:05:03;102666.78;;;20.10;53.51
79540;BME280;74475;52.122;5.406;2024-01-30T02:07:30;102671.47;;;20.08;53.74
79540;BME280;74475;52.122;5.406;2024-01-30T02:09:57;102663.34;;;20.06;53.86
79540;BME280;74475;52.122;5.406;2024-01-30T02:12:23;102659.75;;;20.06;53.69
79540;BME280;74475;52.122;5.406;2024-01-30T02:14:50;102667.03;;;20.05;53.65
79540;BME280;74475;52.122;5.406;2024-01-30T02:17:17;102660.81;;;20.03;53.82
79540;BME280;74475;52.122;5.406;2024-01-30T02:19:44;102660.88;;;20.02;53.61
79540;BME280;74475;52.122;5.406;2024-01-30T02:22:10;102661.00;;;20.00;53.63
79540;BME280;74475;52.122;5.406;2024-01-30T02:24:37;102655.63;;;19.99;53.59
79540;BME280;74475;52.122;5.406;2024-01-30T02:27:04;102664.81;;;19.98;53.61
79540;BME280;74475;52.122;5.406;2024-01-30T02:29:30;102660.31;;;19.97;53.24
79540;BME280;74475;52.122;5.406;2024-01-30T02:31:57;102669.47;;;19.96;53.61
79540;BME280;74475;52.122;5.406;2024-01-30T02:34:24;102671.41;;;19.94;53.68
79540;BME280;74475;52.122;5.406;2024-01-30T02:36:50;102674.34;;;19.91;53.59
79540;BME280;74475;52.122;5.406;2024-01-30T02:39:17;102668.00;;;19.90;53.72
79540;BME280;74475;52.122;5.406;2024-01-30T02:41:43;102668.94;;;19.89;53.52
79540;BME280;74475;52.122;5.406;2024-01-30T02:44:10;102663.56;;;19.87;53.65
79540;BME280;74475;52.122;5.406;2024-01-30T02:46:36;102664.63;;;19.85;53.79
79540;BME280;74475;52.122;5.406;2024-01-30T02:49:02;102655.56;;;19.84;53.69
79540;BME280;74475;52.122;5.406;2024-01-30T02:51:29;102658.28;;;19.84;53.36
79540;BME280;74475;52.122;5.406;2024-01-30T02:53:55;102641.16;;;19.82;53.27
79540;BME280;74475;52.122;5.406;2024-01-30T02:56:22;102652.13;;;19.81;53.65
79540;BME280;74475;52.122;5.406;2024-01-30T02:58:48;102647.69;;;19.80;53.93
79540;BME280;74475;52.122;5.406;2024-01-30T03:01:15;102652.25;;;19.79;53.73
79540;BME280;74475;52.122;5.406;2024-01-30T03:03:41;102648.72;;;19.77;53.52
79540;BME280;74475;52.122;5.406;2024-01-30T03:06:09;102646.97;;;19.76;54.18
79540;BME280;74475;52.122;5.406;2024-01-30T03:08:36;102643.44;;;19.74;53.76
79540;BME280;74475;52.122;5.406;2024-01-30T03:11:02;102642.56;;;19.74;53.57
79540;BME280;74475;52.122;5.406;2024-01-30T03:13:29;102636.22;;;19.73;53.07
79540;BME280;74475;52.122;5.406;2024-01-30T03:15:55;102629.03;;;19.72;53.75
79540;BME280;74475;52.122;5.406;2024-01-30T03:18:22;102619.06;;;19.71;53.36
79540;BME280;74475;52.122;5.406;2024-01-30T03:20:48;102619.16;;;19.70;53.60
79540;BME280;74475;52.122;5.406;2024-01-30T03:23:15;102614.75;;;19.67;53.58
79540;BME280;74475;52.122;5.406;2024-01-30T03:25:41;102614.75;;;19.67;53.65
79540;BME280;74475;52.122;5.406;2024-01-30T03:28:08;102618.44;;;19.66;53.72
79540;BME280;74475;52.122;5.406;2024-01-30T03:30:34;102616.72;;;19.65;53.79
79540;BME280;74475;52.122;5.406;2024-01-30T03:33:01;102624.09;;;19.63;54.00
79540;BME280;74475;52.122;5.406;2024-01-30T03:35:27;102627.81;;;19.62;53.90
79540;BME280;74475;52.122;5.406;2024-01-30T03:37:54;102626.94;;;19.62;53.85
79540;BME280;74475;52.122;5.406;2024-01-30T03:40:20;102616.09;;;19.60;53.63
79540;BME280;74475;52.122;5.406;2024-01-30T03:42:47;102614.31;;;19.59;53.36
79540;BME280;74475;52.122;5.406;2024-01-30T03:45:13;102615.31;;;19.58;53.73
79540;BME280;74475;52.122;5.406;2024-01-30T03:47:43;102615.41;;;19.57;53.65
79540;BME280;74475;52.122;5.406;2024-01-30T03:50:09;102602.72;;;19.56;53.71
79540;BME280;74475;52.122;5.406;2024-01-30T03:52:36;102606.50;;;19.53;53.37
79540;BME280;74475;52.122;5.406;2024-01-30T03:55:03;102600.19;;;19.53;53.58
79540;BME280;74475;52.122;5.406;2024-01-30T03:57:29;102600.19;;;19.53;53.75
79540;BME280;74475;52.122;5.406;2024-01-30T03:59:56;102596.66;;;19.51;53.89
79540;BME280;74475;52.122;5.406;2024-01-30T04:02:25;102601.25;;;19.50;53.47
79540;BME280;74475;52.122;5.406;2024-01-30T04:04:52;102605.81;;;19.50;53.67
79540;BME280;74475;52.122;5.406;2024-01-30T04:07:18;102603.19;;;19.48;53.60
79540;BME280;74475;52.122;5.406;2024-01-30T04:09:49;102610.56;;;19.46;53.56
79540;BME280;74475;52.122;5.406;2024-01-30T04:12:16;102614.25;;;19.45;53.68
79540;BME280;74475;52.122;5.406;2024-01-30T04:14:43;102618.88;;;19.45;53.72
79540;BME280;74475;52.122;5.406;2024-01-30T04:17:10;102614.38;;;19.44;53.42
79540;BME280;74475;52.122;5.406;2024-01-30T04:19:40;102618.94;;;19.43;53.45
79540;BME280;74475;52.122;5.406;2024-01-30T04:22:07;102618.16;;;19.41;54.01
79540;BME280;74475;52.122;5.406;2024-01-30T04:24:34;102608.19;;;19.40;53.46
79540;BME280;74475;52.122;5.406;2024-01-30T04:27:00;102604.56;;;19.39;53.46
79540;BME280;74475;52.122;5.406;2024-01-30T04:29:26;102598.22;;;19.39;53.64
79540;BME280;74475;52.122;5.406;2024-01-30T04:31:53;102600.19;;;19.37;53.27
79540;BME280;74475;52.122;5.406;2024-01-30T04:34:19;102590.16;;;19.37;53.45
79540;BME280;74475;52.122;5.406;2024-01-30T04:36:46;102592.97;;;19.36;53.62
79540;BME280;74475;52.122;5.406;2024-01-30T04:39:13;102588.47;;;19.35;53.59
79540;BME280;74475;52.122;5.406;2024-01-30T04:41:39;102581.28;;;19.34;53.82
79540;BME280;74475;52.122;5.406;2024-01-30T04:44:06;102582.22;;;19.33;53.70
79540;BME280;74475;52.122;5.406;2024-01-30T04:46:33;102574.06;;;19.33;53.62
79540;BME280;74475;52.122;5.406;2024-01-30T04:49:01;102572.41;;;19.30;53.74
79540;BME280;74475;52.122;5.406;2024-01-30T04:51:27;102573.25;;;19.31;54.03
79540;BME280;74475;52.122;5.406;2024-01-30T04:53:53;102579.69;;;19.30;53.78
79540;BME280;74475;52.122;5.406;2024-01-30T04:56:20;102580.66;;;19.29;53.70
79540;BME280;74475;52.122;5.406;2024-01-30T04:58:47;102578.88;;;19.28;53.68
79540;BME280;74475;52.122;5.406;2024-01-30T05:01:15;102588.91;;;19.27;53.73
79540;BME280;74475;52.122;5.406;2024-01-30T05:03:43;102589.03;;;19.26;53.64
79540;BME280;74475;52.122;5.406;2024-01-30T05:06:09;102579.06;;;19.25;53.61
79540;BME280;74475;52.122;5.406;2024-01-30T05:08:36;102586.38;;;19.24;53.66
79540;BME280;74475;52.122;5.406;2024-01-30T05:11:04;102588.22;;;19.24;53.56
79540;BME280;74475;52.122;5.406;2024-01-30T05:13:31;102587.34;;;19.23;53.60
79540;BME280;74475;52.122;5.406;2024-01-30T05:15:58;102587.44;;;19.22;54.28
79540;BME280;74475;52.122;5.406;2024-01-30T05:18:24;102592.97;;;19.20;53.99
79540;BME280;74475;52.122;5.406;2024-01-30T05:20:51;102580.31;;;19.19;53.44
79540;BME280;74475;52.122;5.406;2024-01-30T05:23:18;102576.72;;;19.19;53.78
79540;BME280;74475;52.122;5.406;2024-01-30T05:25:44;102576.72;;;19.19;53.80
79540;BME280;74475;52.122;5.406;2024-01-30T05:28:11;102572.22;;;19.18;53.70
79540;BME280;74475;52.122;5.406;2024-01-30T05:30:37;102567.72;;;19.17;53.86
79540;BME280;74475;52.122;5.406;2024-01-30T05:33:03;102562.38;;;19.15;53.75
79540;BME280;74475;52.122;5.406;2024-01-30T05:35:30;102553.31;;;19.15;53.76
79540;BME280;74475;52.122;5.406;2024-01-30T05:37:57;102553.31;;;19.15;53.92
79540;BME280;74475;52.122;5.406;2024-01-30T05:40:24;102566.16;;;19.13;53.68
79540;BME280;74475;52.122;5.406;2024-01-30T05:42:50;102566.16;;;19.13;53.68
79540;BME280;74475;52.122;5.406;2024-01-30T05:45:17;102578.91;;;19.12;53.58
79540;BME280;74475;52.122;5.406;2024-01-30T05:47:43;102574.41;;;19.11;53.87
79540;BME280;74475;52.122;5.406;2024-01-30T05:50:10;102564.47;;;19.10;53.79
79540;BME280;74475;52.122;5.406;2024-01-30T05:52:36;102567.19;;;19.10;53.79
79540;BME280;74475;52.122;5.406;2024-01-30T05:55:03;102568.19;;;19.09;53.79
79540;BME280;74475;52.122;5.406;2024-01-30T05:57:30;102571.88;;;19.08;53.78
79540;BME280;74475;52.122;5.406;2024-01-30T05:59:56;102571.88;;;19.08;53.76
79540;BME280;74475;52.122;5.406;2024-01-30T06:02:23;102571.88;;;19.08;53.84
79540;BME280;74475;52.122;5.406;2024-01-30T06:04:49;102581.00;;;19.07;53.72
79540;BME280;74475;52.122;5.406;2024-01-30T06:07:16;102581.13;;;19.06;53.84
79540;BME280;74475;52.122;5.406;2024-01-30T06:09:44;102580.25;;;19.05;54.15
79540;BME280;74475;52.122;5.406;2024-01-30T06:12:12;102578.47;;;19.04;54.00
79540;BME280;74475;52.122;5.406;2024-01-30T06:14:38;102574.88;;;19.04;53.93
79540;BME280;74475;52.122;5.406;2024-01-30T06:17:05;102578.53;;;19.03;53.68
79540;BME280;74475;52.122;5.406;2024-01-30T06:19:31;102575.81;;;19.03;53.86
79540;BME280;74475;52.122;5.406;2024-01-30T06:21:58;102585.00;;;19.02;53.81
79540;BME280;74475;52.122;5.406;2024-01-30T06:24:25;102578.72;;;19.00;53.58
79540;BME280;74475;52.122;5.406;2024-01-30T06:26:51;102572.38;;;18.99;54.23
79540;BME280;74475;52.122;5.406;2024-01-30T06:29:18;102569.78;;;18.98;54.30
79540;BME280;74475;52.122;5.406;2024-01-30T06:31:45;102580.69;;;18.98;53.89
79540;BME280;74475;52.122;5.406;2024-01-30T06:34:12;102580.69;;;18.98;53.85
79540;BME280;74475;52.122;5.406;2024-01-30T06:36:39;102586.13;;;18.98;53.98
79540;BME280;74475;52.122;5.406;2024-01-30T06:39:05;102581.56;;;18.98;54.09
79540;BME280;74475;52.122;5.406;2024-01-30T06:41:32;102581.56;;;18.98;54.24
79540;BME280;74475;52.122;5.406;2024-01-30T06:43:58;102595.06;;;19.00;54.40
79540;BME280;74475;52.122;5.406;2024-01-30T06:46:25;102582.44;;;18.99;54.74
79540;BME280;74475;52.122;5.406;2024-01-30T06:48:51;102598.78;;;18.99;54.60
79540;BME280;74475;52.122;5.406;2024-01-30T06:51:18;102590.63;;;18.99;54.70
79540;BME280;74475;52.122;5.406;2024-01-30T06:53:44;102580.69;;;18.98;54.61
79540;BME280;74475;52.122;5.406;2024-01-30T06:56:11;102579.72;;;18.99;54.73
79540;BME280;74475;52.122;5.406;2024-01-30T06:58:37;102601.53;;;18.99;54.80
79540;BME280;74475;52.122;5.406;2024-01-30T07:01:03;102595.19;;;18.98;54.61
79540;BME280;74475;52.122;5.406;2024-01-30T07:03:30;102593.34;;;18.99;54.83
79540;BME280;74475;52.122;5.406;2024-01-30T07:05:57;102596.91;;;18.99;54.78
79540;BME280;74475;52.122;5.406;2024-01-30T07:08:23;102598.78;;;18.99;54.56
79540;BME280;74475;52.122;5.406;2024-01-30T07:10:49;102589.72;;;18.98;55.08
79540;BME280;74475;52.122;5.406;2024-01-30T07:13:16;102587.91;;;18.99;54.83
79540;BME280;74475;52.122;5.406;2024-01-30T07:15:43;102597.03;;;18.98;54.56
79540;BME280;74475;52.122;5.406;2024-01-30T07:18:09;102606.09;;;18.98;54.75
79540;BME280;74475;52.122;5.406;2024-01-30T07:20:36;102600.63;;;18.98;54.76
79540;BME280;74475;52.122;5.406;2024-01-30T07:23:03;102606.09;;;18.98;54.82
79540;BME280;74475;52.122;5.406;2024-01-30T07:25:29;102606.97;;;18.99;54.76
79540;BME280;74475;52.122;5.406;2024-01-30T07:27:56;102602.38;;;18.99;54.96
79540;BME280;74475;52.122;5.406;2024-01-30T07:30:23;102611.44;;;19.00;54.69
79540;BME280;74475;52.122;5.406;2024-01-30T07:32:50;102607.81;;;18.99;55.00
79540;BME280;74475;52.122;5.406;2024-01-30T07:35:16;102616.00;;;18.99;54.96
79540;BME280;74475;52.122;5.406;2024-01-30T07:37:43;102620.59;;;18.99;54.79
79540;BME280;74475;52.122;5.406;2024-01-30T07:40:10;102623.41;;;18.97;54.85
79540;BME280;74475;52.122;5.406;2024-01-30T07:42:36;102623.41;;;18.97;54.81
79540;BME280;74475;52.122;5.406;2024-01-30T07:45:03;102620.69;;;18.97;54.96
79540;BME280;74475;52.122;5.406;2024-01-30T07:47:30;102615.22;;;18.97;54.57
79540;BME280;74475;52.122;5.406;2024-01-30T07:49:56;102628.84;;;18.97;54.98
79540;BME280;74475;52.122;5.406;2024-01-30T07:52:23;102633.41;;;18.97;54.74
79540;BME280;74475;52.122;5.406;2024-01-30T07:54:50;102637.91;;;18.98;54.87
79540;BME280;74475;52.122;5.406;2024-01-30T07:57:17;102628.91;;;18.96;54.87
79540;BME280;74475;52.122;5.406;2024-01-30T07:59:44;102637.09;;;18.96;54.86
79540;BME280;74475;52.122;5.406;2024-01-30T08:02:14;102633.53;;;18.95;54.88
79540;BME280;74475;52.122;5.406;2024-01-30T08:04:40;102634.38;;;18.96;54.74
79540;BME280;74475;52.122;5.406;2024-01-30T08:07:07;102638.97;;;18.95;54.80
79540;BME280;74475;52.122;5.406;2024-01-30T08:09:34;102634.38;;;18.96;54.90
79540;BME280;74475;52.122;5.406;2024-01-30T08:12:00;102641.78;;;18.94;54.89
79540;BME280;74475;52.122;5.406;2024-01-30T08:14:27;102633.53;;;18.95;54.78
79540;BME280;74475;52.122;5.406;2024-01-30T08:16:54;102630.88;;;18.94;55.42
79540;BME280;74475;52.122;5.406;2024-01-30T08:19:21;102635.44;;;18.93;54.80
79540;BME280;74475;52.122;5.406;2024-01-30T08:21:48;102630.94;;;18.92;54.78
79540;BME280;74475;52.122;5.406;2024-01-30T08:24:15;102632.88;;;18.90;54.74
79540;BME280;74475;52.122;5.406;2024-01-30T08:26:41;102631.13;;;18.89;54.72
79540;BME280;74475;52.122;5.406;2024-01-30T08:29:08;102632.09;;;18.88;54.59
79540;BME280;74475;52.122;5.406;2024-01-30T08:31:35;102632.19;;;18.86;54.56
79540;BME280;74475;52.122;5.406;2024-01-30T08:34:01;102643.09;;;18.86;54.62
79540;BME280;74475;52.122;5.406;2024-01-30T08:36:28;102641.31;;;18.85;54.54
79540;BME280;74475;52.122;5.406;2024-01-30T08:38:55;102639.56;;;18.84;54.45
79540;BME280;74475;52.122;5.406;2024-01-30T08:41:27;102632.34;;;18.83;54.49
79540;BME280;74475;52.122;5.406;2024-01-30T08:43:53;102630.50;;;18.84;54.47
79540;BME280;74475;52.122;5.406;2024-01-30T08:46:20;102629.53;;;18.85;54.43
79540;BME280;74475;52.122;5.406;2024-01-30T08:48:47;102626.81;;;18.85;54.56
79540;BME280;74475;52.122;5.406;2024-01-30T08:51:14;102630.41;;;18.85;54.36
79540;BME280;74475;52.122;5.406;2024-01-30T08:53:41;102636.75;;;18.86;54.65
79540;BME280;74475;52.122;5.406;2024-01-30T08:56:08;102631.28;;;18.86;54.78
79540;BME280;74475;52.122;5.406;2024-01-30T08:58:34;102634.91;;;18.86;54.72
79540;BME280;74475;52.122;5.406;2024-01-30T09:01:01;102642.19;;;18.86;54.38
79540;BME280;74475;52.122;5.406;2024-01-30T09:03:27;102642.19;;;18.86;54.19
79540;BME280;74475;52.122;5.406;2024-01-30T09:05:54;102637.56;;;18.88;54.69
79540;BME280;74475;52.122;5.406;2024-01-30T09:08:20;102639.41;;;18.87;54.63
79540;BME280;74475;52.122;5.406;2024-01-30T09:10:47;102634.84;;;18.88;54.51
79540;BME280;74475;52.122;5.406;2024-01-30T09:13:14;102636.56;;;18.89;54.48
79540;BME280;74475;52.122;5.406;2024-01-30T09:15:41;102635.53;;;18.92;54.63
79540;BME280;74475;52.122;5.406;2024-01-30T09:18:09;102634.56;;;18.93;54.43
79540;BME280;74475;52.122;5.406;2024-01-30T09:20:35;102646.25;;;18.95;54.54
79540;BME280;74475;52.122;5.406;2024-01-30T09:23:02;102654.34;;;18.96;54.46
79540;BME280;74475;52.122;5.406;2024-01-30T09:25:28;102645.28;;;18.96;54.40
79540;BME280;74475;52.122;5.406;2024-01-30T09:27:55;102651.78;;;18.93;54.62
79540;BME280;74475;52.122;5.406;2024-01-30T09:30:22;102664.63;;;18.91;54.67
79540;BME280;74475;52.122;5.406;2024-01-30T09:32:48;102660.22;;;18.88;54.37
79540;BME280;74475;52.122;5.406;2024-01-30T09:35:14;102647.47;;;18.89;54.76
79540;BME280;74475;52.122;5.406;2024-01-30T09:37:41;102663.75;;;18.91;54.62
79540;BME280;74475;52.122;5.406;2024-01-30T09:40:08;102661.03;;;18.91;54.78
79540;BME280;74475;52.122;5.406;2024-01-30T09:42:36;102666.47;;;18.91;54.83
79540;BME280;74475;52.122;5.406;2024-01-30T09:45:06;102657.34;;;18.92;54.92
79540;BME280;74475;52.122;5.406;2024-01-30T09:47:39;102662.69;;;18.93;55.00
79540;BME280;74475;52.122;5.406;2024-01-30T09:50:08;102669.03;;;18.94;55.04
79540;BME280;74475;52.122;5.406;2024-01-30T09:52:35;102674.41;;;18.95;55.19
79540;BME280;74475;52.122;5.406;2024-01-30T09:55:03;102679.94;;;18.94;55.07
79540;BME280;74475;52.122;5.406;2024-01-30T09:57:29;102676.25;;;18.95;55.18
79540;BME280;74475;52.122;5.406;2024-01-30T09:59:56;102670.88;;;18.93;55.21
79540;BME280;74475;52.122;5.406;2024-01-30T10:02:22;102684.50;;;18.93;55.32
79540;BME280;74475;52.122;5.406;2024-01-30T10:04:51;102682.66;;;18.94;55.37
79540;BME280;74475;52.122;5.406;2024-01-30T10:07:18;102672.63;;;18.94;55.17
79540;BME280;74475;52.122;5.406;2024-01-30T10:09:45;102681.69;;;18.95;55.41
79540;BME280;74475;52.122;5.406;2024-01-30T10:12:12;102679.84;;;18.95;55.22
79540;BME280;74475;52.122;5.406;2024-01-30T10:14:40;102680.81;;;18.94;55.28
79540;BME280;74475;52.122;5.406;2024-01-30T10:17:10;102673.53;;;18.95;55.18
79540;BME280;74475;52.122;5.406;2024-01-30T10:19:49;102678.97;;;18.95;55.13
79540;BME280;74475;52.122;5.406;2024-01-30T10:22:18;102682.66;;;18.94;55.24
79540;BME280;74475;52.122;5.406;2024-01-30T10:24:45;102682.59;;;18.95;55.00
79540;BME280;74475;52.122;5.406;2024-01-30T10:27:12;102675.25;;;18.96;55.53
79540;BME280;74475;52.122;5.406;2024-01-30T10:29:38;102673.41;;;18.96;54.96
79540;BME280;74475;52.122;5.406;2024-01-30T10:32:05;102672.47;;;18.97;54.94
79540;BME280;74475;52.122;5.406;2024-01-30T10:34:32;102675.97;;;18.99;55.01
79540;BME280;74475;52.122;5.406;2024-01-30T10:37:07;102691.28;;;19.02;55.01
79540;BME280;74475;52.122;5.406;2024-01-30T10:39:39;102691.13;;;19.05;54.96
79540;BME280;74475;52.122;5.406;2024-01-30T10:42:15;102680.22;;;19.05;54.78
79540;BME280;74475;52.122;5.406;2024-01-30T10:44:44;102677.50;;;19.05;54.70
79540;BME280;74475;52.122;5.406;2024-01-30T10:47:17;102685.66;;;19.05;54.77
79540;BME280;74475;52.122;5.406;2024-01-30T10:49:45;102688.41;;;19.05;54.61
79540;BME280;74475;52.122;5.406;2024-01-30T10:52:14;102683.03;;;19.03;54.70
79540;BME280;74475;52.122;5.406;2024-01-30T10:54:44;102692.19;;;19.02;54.71
79540;BME280;74475;52.122;5.406;2024-01-30T10:57:12;102703.16;;;19.01;54.06
79540;BME280;74475;52.122;5.406;2024-01-30T10:59:39;102697.78;;;18.99;54.12
79540;BME280;74475;52.122;5.406;2024-01-30T11:02:07;102689.34;;;19.04;54.17
79540;BME280;74475;52.122;5.406;2024-01-30T11:04:37;102695.50;;;19.07;54.31
79540;BME280;74475;52.122;5.406;2024-01-30T11:07:17;102693.59;;;19.09;54.22
79540;BME280;74475;52.122;5.406;2024-01-30T11:09:51;102694.38;;;19.11;54.19
79540;BME280;74475;52.122;5.406;2024-01-30T11:12:22;102711.28;;;19.18;54.23
79540;BME280;74475;52.122;5.406;2024-01-30T11:17:45;102699.41;;;19.34;54.04
79540;BME280;74475;52.122;5.406;2024-01-30T11:20:19;102710.91;;;19.41;53.98
79540;BME280;74475;52.122;5.406;2024-01-30T11:22:47;102693.28;;;19.47;53.88
79540;BME280;74475;52.122;5.406;2024-01-30T11:25:15;102695.78;;;19.51;53.83
79540;BME280;74475;52.122;5.406;2024-01-30T11:27:44;102696.19;;;19.59;53.87
79540;BME280;74475;52.122;5.406;2024-01-30T11:30:23;102702.09;;;19.67;53.77
79540;BME280;74475;52.122;5.406;2024-01-30T11:33:09;102707.03;;;19.76;53.64
79540;BME280;74475;52.122;5.406;2024-01-30T11:35:39;102713.00;;;19.83;53.77
79540;BME280;74475;52.122;5.406;2024-01-30T11:38:11;102716.25;;;19.90;53.37
79540;BME280;74475;52.122;5.406;2024-01-30T11:40:38;102717.72;;;19.95;53.15
79540;BME280;74475;52.122;5.406;2024-01-30T11:43:07;102727.41;;;20.01;52.99
79540;BME280;74475;52.122;5.406;2024-01-30T11:45:34;102724.31;;;20.07;53.16
79540;BME280;74475;52.122;5.406;2024-01-30T11:48:02;102728.63;;;20.11;53.08
79540;BME280;74475;52.122;5.406;2024-01-30T11:50:33;102724.75;;;20.15;52.88
79540;BME280;74475;52.122;5.406;2024-01-30T11:53:01;102729.06;;;20.19;52.72
79540;BME280;74475;52.122;5.406;2024-01-30T11:55:29;102729.75;;;20.22;52.59
79540;BME280;74475;52.122;5.406;2024-01-30T11:58:00;102735.03;;;20.25;52.69
79540;BME280;74475;52.122;5.406;2024-01-30T12:00:27;102738.47;;;20.29;52.56
79540;BME280;74475;52.122;5.406;2024-01-30T12:02:54;102740.06;;;20.33;52.67
79540;BME280;74475;52.122;5.406;2024-01-30T12:05:27;102738.09;;;20.35;52.59
79540;BME280;74475;52.122;5.406;2024-01-30T12:07:54;102731.50;;;20.39;52.42
79540;BME280;74475;52.122;5.406;2024-01-30T12:10:21;102734.03;;;20.42;52.50
79540;BME280;74475;52.122;5.406;2024-01-30T12:12:49;102740.25;;;20.44;52.21
79540;BME280;74475;52.122;5.406;2024-01-30T12:15:18;102744.56;;;20.48;52.45
79540;BME280;74475;52.122;5.406;2024-01-30T12:17:45;102739.09;;;20.48;52.34
79540;BME280;74475;52.122;5.406;2024-01-30T12:20:13;102743.53;;;20.51;52.38
79540;BME280;74475;52.122;5.406;2024-01-30T12:25:09;102754.06;;;20.57;52.20
79540;BME280;74475;52.122;5.406;2024-01-30T12:27:36;102752.22;;;20.57;52.25
79540;BME280;74475;52.122;5.406;2024-01-30T12:30:07;102768.50;;;20.59;52.20
79540;BME280;74475;52.122;5.406;2024-01-30T12:32:38;102769.41;;;20.59;52.13
79540;BME280;74475;52.122;5.406;2024-01-30T12:35:16;102785.59;;;20.62;52.13
79540;BME280;74475;52.122;5.406;2024-01-30T12:37:44;102783.69;;;20.64;51.87
79540;BME280;74475;52.122;5.406;2024-01-30T12:40:12;102788.06;;;20.67;52.14
79540;BME280;74475;52.122;5.406;2024-01-30T12:42:41;102791.69;;;20.67;52.33
79540;BME280;74475;52.122;5.406;2024-01-30T12:45:13;102783.28;;;20.70;52.03
79540;BME280;74475;52.122;5.406;2024-01-30T12:47:41;102783.22;;;20.72;52.12
79540;BME280;74475;52.122;5.406;2024-01-30T12:50:08;102788.56;;;20.73;51.86
79540;BME280;74475;52.122;5.406;2024-01-30T12:52:36;102786.63;;;20.75;51.68
79540;BME280;74475;52.122;5.406;2024-01-30T12:55:03;102784.69;;;20.77;51.84